createdAt,value
2023-05-13T00:01:20.277Z,137.06
2023-05-13T00:04:27.081Z,149.34
2023-05-13T00:07:33.034Z,148.14
2023-05-13T00:10:40.180Z,153.92
2023-05-13T00:13:46.202Z,148.12
2023-05-13T00:16:55.978Z,150.28
2023-05-13T00:20:01.887Z,144.51
2023-05-13T00:23:08.974Z,152.33
2023-05-13T00:26:15.079Z,143.48
2023-05-13T00:29:24.939Z,143.44
2023-05-13T00:32:33.470Z,148.50
2023-05-13T00:35:40.766Z,145.04
2023-05-13T00:38:47.980Z,143.42
2023-05-13T00:41:55.373Z,143.25
2023-05-13T00:45:01.410Z,131.35
2023-05-13T00:48:12.479Z,146.76
2023-05-13T00:51:18.979Z,139.11
2023-05-13T00:54:25.724Z,143.27
2023-05-13T00:57:32.777Z,135.84
2023-05-13T01:00:51.602Z,141.81
2023-05-13T01:04:17.971Z,136.05
2023-05-13T01:07:42.961Z,146.19
2023-05-13T01:10:57.641Z,144.77
2023-05-13T01:14:14.768Z,156.74
2023-05-13T01:17:32.160Z,152.64
2023-05-13T01:20:45.879Z,148.70
2023-05-13T01:23:54.521Z,150.48
2023-05-13T01:27:10.203Z,158.60
2023-05-13T01:30:17.642Z,155.83
2023-05-13T01:33:25.827Z,162.61
2023-05-13T01:36:32.470Z,165.26
2023-05-13T01:39:43.332Z,157.07
2023-05-13T01:42:56.370Z,155.55
2023-05-13T01:46:05.010Z,157.41
2023-05-13T01:49:11.155Z,164.23
2023-05-13T01:52:18.130Z,165.37
2023-05-13T01:55:27.487Z,168.68
2023-05-13T01:58:36.501Z,163.54
2023-05-13T02:01:43.139Z,163.06
2023-05-13T02:04:50.044Z,189.42
2023-05-13T02:08:03.050Z,182.24
2023-05-13T02:11:18.759Z,189.20
2023-05-13T02:14:24.875Z,190.38
2023-05-13T02:17:31.771Z,195.04
2023-05-13T02:20:37.806Z,199.09
2023-05-13T02:23:44.592Z,201.28
2023-05-13T02:26:53.323Z,206.00
2023-05-13T02:30:00.224Z,196.89
2023-05-13T02:33:10.725Z,193.52
2023-05-13T02:36:17.761Z,189.44
2023-05-13T02:39:24.368Z,186.39
2023-05-13T02:42:36.171Z,188.94
2023-05-13T02:45:44.570Z,188.34
2023-05-13T02:48:51.552Z,180.94
2023-05-13T02:51:57.550Z,188.09
2023-05-13T02:55:13.316Z,188.52
2023-05-13T02:58:21.994Z,181.64
2023-05-13T03:01:29.616Z,216.62
2023-05-13T03:04:35.529Z,189.59
2023-05-13T03:07:42.305Z,197.32
2023-05-13T03:10:51.745Z,201.29
2023-05-13T03:14:05.952Z,203.64
2023-05-13T03:17:15.191Z,205.71
2023-05-13T03:20:28.690Z,215.29
2023-05-13T03:23:38.498Z,213.75
2023-05-13T03:26:47.180Z,223.49
2023-05-13T03:30:07.122Z,253.45
2023-05-13T03:33:20.886Z,36785.51
2023-05-13T03:36:27.283Z,52640.18
2023-05-13T03:39:34.503Z,26537.83
2023-05-13T03:42:40.723Z,35623.67
2023-05-13T03:45:51.847Z,45603.09
2023-05-13T03:49:01.270Z,25927.27
2023-05-13T03:52:10.975Z,33605.96
2023-05-13T03:55:17.015Z,56550.59
2023-05-13T03:58:24.213Z,31798.40
2023-05-13T04:01:33.480Z,695.79
2023-05-13T04:04:40.514Z,225.82
2023-05-13T04:07:46.799Z,212.86
2023-05-13T04:10:53.771Z,218.14
2023-05-13T04:13:59.982Z,200.75
2023-05-13T04:17:09.841Z,198.09
2023-05-13T04:20:16.371Z,191.91
2023-05-13T04:23:23.095Z,191.89
2023-05-13T04:26:29.302Z,181.74
2023-05-13T04:29:36.178Z,183.81
2023-05-13T04:32:44.768Z,187.85
2023-05-13T04:35:53.209Z,193.92
2023-05-13T04:38:59.109Z,189.06
2023-05-13T04:42:06.439Z,183.65
2023-05-13T04:45:17.975Z,182.74
2023-05-13T04:48:37.609Z,164.08
2023-05-13T04:51:43.885Z,167.36
2023-05-13T04:54:53.181Z,175.71
2023-05-13T04:57:59.295Z,175.52
2023-05-13T05:01:06.370Z,173.45
2023-05-13T05:04:16.376Z,169.78
2023-05-13T05:07:26.408Z,179.00
2023-05-13T05:10:32.548Z,178.14
2023-05-13T05:13:42.434Z,183.78
2023-05-13T05:16:49.232Z,197.10
2023-05-13T05:19:59.526Z,199.54
2023-05-13T05:23:05.854Z,199.22
2023-05-13T05:26:13.476Z,191.02
2023-05-13T05:29:29.190Z,188.60
2023-05-13T05:32:36.957Z,199.01
2023-05-13T05:35:47.052Z,188.00
2023-05-13T05:38:56.631Z,171.66
2023-05-13T05:42:19.976Z,163.49
2023-05-13T05:45:26.784Z,176.02
2023-05-13T05:48:34.605Z,173.23
2023-05-13T05:51:44.791Z,170.11
2023-05-13T05:54:50.981Z,177.14
2023-05-13T05:57:57.874Z,195.02
2023-05-13T06:01:04.673Z,171.32
2023-05-13T06:04:11.530Z,162.63
2023-05-13T06:07:20.283Z,157.94
2023-05-13T06:10:27.113Z,152.46
2023-05-13T06:13:33.506Z,147.87
2023-05-13T06:16:47.239Z,155.12
2023-05-13T06:19:59.683Z,131.41
2023-05-13T06:23:09.031Z,158.14
2023-05-13T06:26:15.066Z,132.90
2023-05-13T06:29:21.872Z,118.51
2023-05-13T06:32:27.883Z,106.42
2023-05-13T06:35:34.861Z,109.55
2023-05-13T06:38:46.146Z,97.67
2023-05-13T06:41:56.941Z,100.49
2023-05-13T06:45:11.993Z,83.29
2023-05-13T06:48:22.403Z,88.99
2023-05-13T06:51:30.841Z,138.13
2023-05-13T06:54:40.520Z,142.95
2023-05-13T06:57:47.596Z,110.74
2023-05-13T07:00:59.950Z,103.83
2023-05-13T07:04:18.323Z,102.81
2023-05-13T07:07:31.207Z,103.80
2023-05-13T07:10:40.232Z,96.18
2023-05-13T07:13:47.509Z,98.81
2023-05-13T07:16:53.672Z,96.65
2023-05-13T07:20:00.522Z,102.19
2023-05-13T07:23:09.115Z,90.42
2023-05-13T07:26:18.566Z,82.64
2023-05-13T07:29:25.907Z,76.59
2023-05-13T07:32:38.357Z,81.44
2023-05-13T07:35:44.411Z,94.03
2023-05-13T07:38:51.273Z,110.71
2023-05-13T07:41:59.849Z,98.73
2023-05-13T07:45:07.552Z,126.80
2023-05-13T07:48:18.643Z,99.86
2023-05-13T07:51:25.582Z,87.42
2023-05-13T07:54:32.165Z,94.22
2023-05-13T07:57:41.667Z,144.93
2023-05-13T08:00:51.701Z,94.27
2023-05-13T08:03:58.848Z,92.42
2023-05-13T08:07:05.269Z,88.60
2023-05-13T08:10:12.691Z,83.65
2023-05-13T08:13:22.167Z,106.53
2023-05-13T08:16:30.721Z,134.98
2023-05-13T08:19:37.041Z,121.21
2023-05-13T08:22:44.134Z,130.90
2023-05-13T08:25:50.269Z,100.50
2023-05-13T08:29:00.301Z,93.01
2023-05-13T08:32:09.856Z,75.87
2023-05-13T08:35:17.076Z,100.67
2023-05-13T08:38:35.197Z,100.13
2023-05-13T08:41:45.319Z,90.47
2023-05-13T08:44:56.366Z,82.56
2023-05-13T08:48:13.318Z,97.09
2023-05-13T08:51:21.771Z,78.63
2023-05-13T08:54:31.420Z,89.01
2023-05-13T08:57:37.505Z,127.66
2023-05-13T09:00:55.741Z,80.30
2023-05-13T09:04:07.637Z,74.72
2023-05-13T09:07:15.118Z,82.72
2023-05-13T09:10:23.354Z,70.91
2023-05-13T09:13:30.313Z,104.03
2023-05-13T09:16:39.928Z,97.30
2023-05-13T09:19:46.814Z,95.03
2023-05-13T09:22:56.028Z,100.29
2023-05-13T09:26:03.172Z,88.12
2023-05-13T09:29:24.332Z,74.10
2023-05-13T09:32:34.302Z,79.42
2023-05-13T09:35:43.823Z,80.77
2023-05-13T09:38:56.396Z,85.28
2023-05-13T09:42:05.604Z,90.03
2023-05-13T09:45:16.011Z,92.29
2023-05-13T09:48:25.800Z,77.29
2023-05-13T09:51:34.419Z,84.88
2023-05-13T09:54:41.125Z,81.51
2023-05-13T09:57:49.809Z,87.79
2023-05-13T10:00:55.997Z,94.58
2023-05-13T10:04:06.629Z,86.87
2023-05-13T10:07:16.058Z,93.16
2023-05-13T10:10:26.261Z,98.64
2023-05-13T10:13:37.297Z,96.27
2023-05-13T10:16:44.616Z,86.02
2023-05-13T10:19:55.075Z,75.28
2023-05-13T10:23:02.551Z,73.75
2023-05-13T10:26:10.735Z,81.75
2023-05-13T10:29:19.553Z,85.84
2023-05-13T10:32:28.682Z,83.49
2023-05-13T10:35:46.485Z,99.33
2023-05-13T10:39:27.099Z,84.62
2023-05-13T10:43:02.814Z,86.07
2023-05-13T10:46:14.500Z,73.35
2023-05-13T10:49:21.589Z,79.84
2023-05-13T10:52:46.926Z,84.46
2023-05-13T10:55:59.576Z,90.69
2023-05-13T10:59:08.141Z,75.74
2023-05-13T11:02:25.457Z,81.63
2023-05-13T11:05:33.261Z,76.31
2023-05-13T11:08:45.702Z,93.67
2023-05-13T11:11:56.865Z,75.93
2023-05-13T11:15:03.853Z,85.59
2023-05-13T11:18:09.909Z,91.17
2023-05-13T11:21:16.894Z,84.22
2023-05-13T11:24:27.341Z,79.76
2023-05-13T11:27:42.238Z,89.26
2023-05-13T11:30:58.804Z,91.23
2023-05-13T11:34:14.301Z,82.08
2023-05-13T11:37:23.520Z,91.76
2023-05-13T11:40:35.955Z,84.66
2023-05-13T11:43:44.603Z,82.06
2023-05-13T11:46:58.336Z,92.43
2023-05-13T11:50:04.524Z,74.78
2023-05-13T11:53:11.442Z,79.82
2023-05-13T11:56:20.117Z,75.71
2023-05-13T11:59:33.306Z,78.50
2023-05-13T12:02:46.612Z,66.13
2023-05-13T12:05:54.031Z,69.73
2023-05-13T12:09:07.742Z,73.09
2023-05-13T12:12:17.935Z,76.70
2023-05-13T12:15:26.059Z,71.63
2023-05-13T12:18:34.046Z,82.84
2023-05-13T12:21:42.013Z,92.19
2023-05-13T12:24:48.935Z,89.57
2023-05-13T12:27:58.070Z,84.14
2023-05-13T12:31:07.501Z,84.47
2023-05-13T12:34:15.058Z,75.69
2023-05-13T12:37:22.507Z,100.99
2023-05-13T12:40:30.900Z,84.72
2023-05-13T12:43:45.083Z,95.27
2023-05-13T12:46:55.593Z,86.92
2023-05-13T12:50:04.041Z,85.66
2023-05-13T12:53:16.453Z,81.50
2023-05-13T12:56:25.517Z,85.60
2023-05-13T12:59:35.021Z,77.52
2023-05-13T13:02:46.378Z,85.28
2023-05-13T13:05:52.746Z,73.13
2023-05-13T13:08:59.873Z,82.21
2023-05-13T13:12:06.022Z,78.13
2023-05-13T13:15:16.125Z,84.26
2023-05-13T13:18:22.287Z,78.15
2023-05-13T13:21:29.406Z,80.07
2023-05-13T13:24:35.896Z,70.92
2023-05-13T13:27:42.628Z,84.45
2023-05-13T13:30:51.353Z,88.74
2023-05-13T13:34:04.474Z,86.58
2023-05-13T13:37:13.788Z,79.65
2023-05-13T13:40:20.729Z,81.03
2023-05-13T13:43:27.172Z,83.73
2023-05-13T13:46:36.701Z,82.76
2023-05-13T13:49:42.626Z,77.25
2023-05-13T13:52:49.439Z,71.64
2023-05-13T13:55:55.464Z,74.38
2023-05-13T13:59:08.507Z,80.75
2023-05-13T14:02:26.102Z,65.62
2023-05-13T14:05:33.433Z,74.25
2023-05-13T14:08:39.348Z,74.33
2023-05-13T14:11:46.404Z,72.29
2023-05-13T14:14:52.334Z,71.83
2023-05-13T14:18:01.847Z,85.27
2023-05-13T14:21:08.320Z,81.39
2023-05-13T14:24:16.303Z,85.26
2023-05-13T14:27:24.917Z,75.13
2023-05-13T14:30:31.784Z,74.50
2023-05-13T14:33:43.732Z,68.97
2023-05-13T14:36:50.514Z,73.63
2023-05-13T14:39:56.442Z,73.67
2023-05-13T14:43:05.070Z,79.24
2023-05-13T14:46:11.723Z,71.38
2023-05-13T14:49:27.530Z,82.54
2023-05-13T14:52:36.166Z,75.71
2023-05-13T14:55:43.064Z,77.95
2023-05-13T14:58:53.306Z,79.51
2023-05-13T15:02:04.554Z,77.74
2023-05-13T15:05:14.049Z,77.43
2023-05-13T15:08:21.573Z,87.51
2023-05-13T15:11:29.198Z,78.50
2023-05-13T15:14:36.034Z,87.25
2023-05-13T15:17:42.303Z,81.50
2023-05-13T15:20:51.925Z,89.82
2023-05-13T15:24:01.015Z,76.45
2023-05-13T15:27:08.682Z,99.89
2023-05-13T15:30:16.333Z,78.28
2023-05-13T15:33:23.102Z,84.57
2023-05-13T15:36:33.097Z,92.82
2023-05-13T15:39:39.995Z,91.85
2023-05-13T15:42:46.044Z,88.28
2023-05-13T15:45:53.844Z,97.66
2023-05-13T15:48:59.774Z,87.16
2023-05-13T15:52:11.599Z,104.74
2023-05-13T15:55:25.726Z,88.06
2023-05-13T15:58:34.552Z,99.05
2023-05-13T16:01:42.119Z,94.02
2023-05-13T16:04:51.525Z,95.44
2023-05-13T16:08:00.446Z,86.28
2023-05-13T16:11:07.377Z,91.10
2023-05-13T16:14:13.434Z,81.37
2023-05-13T16:17:33.333Z,74.11
2023-05-13T16:20:39.306Z,84.05
2023-05-13T16:23:48.600Z,88.29
2023-05-13T16:26:54.799Z,90.32
2023-05-13T16:30:12.629Z,97.89
2023-05-13T16:33:18.791Z,83.41
2023-05-13T16:36:27.084Z,104.16
2023-05-13T16:39:48.632Z,88.77
2023-05-13T16:43:02.512Z,86.03
2023-05-13T16:46:09.760Z,79.39
2023-05-13T16:49:16.610Z,91.13
2023-05-13T16:52:22.614Z,93.12
2023-05-13T16:55:33.361Z,104.45
2023-05-13T16:58:39.533Z,113.33
2023-05-13T17:01:46.495Z,124.34
2023-05-13T17:05:01.777Z,100.83
2023-05-13T17:08:11.496Z,96.47
2023-05-13T17:11:19.918Z,98.44
2023-05-13T17:14:28.484Z,106.02
2023-05-13T17:17:37.730Z,90.53
2023-05-13T17:20:45.998Z,99.17
2023-05-13T17:23:53.762Z,90.59
2023-05-13T17:27:03.219Z,100.36
2023-05-13T17:30:19.389Z,88.57
2023-05-13T17:33:26.237Z,98.49
2023-05-13T17:36:35.222Z,103.15
2023-05-13T17:39:41.952Z,103.04
2023-05-13T17:42:52.594Z,96.91
2023-05-13T17:45:59.735Z,97.78
2023-05-13T17:49:07.396Z,98.36
2023-05-13T17:52:14.236Z,106.51
2023-05-13T17:55:20.440Z,100.64
2023-05-13T17:58:30.078Z,105.48
2023-05-13T18:01:36.005Z,107.24
2023-05-13T18:04:42.917Z,108.72
2023-05-13T18:07:48.861Z,106.71
2023-05-13T18:11:09.186Z,117.73
2023-05-13T18:14:20.510Z,107.60
2023-05-13T18:17:27.660Z,118.28
2023-05-13T18:20:33.750Z,128.58
2023-05-13T18:23:40.816Z,121.26
2023-05-13T18:26:46.823Z,126.09
2023-05-13T18:29:56.304Z,126.43
2023-05-13T18:33:02.395Z,127.50
2023-05-13T18:36:10.988Z,134.75
2023-05-13T18:39:17.138Z,136.19
2023-05-13T18:42:25.547Z,127.45
2023-05-13T18:45:34.294Z,122.98
2023-05-13T18:48:41.374Z,123.51
2023-05-13T18:51:47.775Z,115.93
2023-05-13T18:55:08.502Z,117.72
2023-05-13T18:58:14.797Z,101.66
2023-05-13T19:01:24.425Z,118.58
2023-05-13T19:04:31.254Z,112.17
2023-05-13T19:07:38.459Z,151.30
2023-05-13T19:10:44.650Z,129.41
2023-05-13T19:14:07.825Z,132.47
2023-05-13T19:17:18.532Z,129.18
2023-05-13T19:20:32.639Z,130.84
2023-05-13T19:23:43.323Z,114.69
2023-05-13T19:26:50.532Z,127.39
2023-05-13T19:29:56.467Z,124.44
2023-05-13T19:33:08.317Z,127.33
2023-05-13T19:36:19.491Z,121.00
2023-05-13T19:39:26.428Z,133.00
2023-05-13T19:42:35.958Z,112.58
2023-05-13T19:45:43.137Z,129.03
2023-05-13T19:48:55.966Z,114.05
2023-05-13T19:52:02.897Z,128.01
2023-05-13T19:55:11.043Z,156.98
2023-05-13T19:58:17.974Z,145.25
2023-05-13T20:01:25.172Z,137.73
2023-05-13T20:04:34.723Z,150.47
2023-05-13T20:07:50.751Z,151.27
2023-05-13T20:11:11.008Z,164.17
2023-05-13T20:14:18.433Z,153.85
2023-05-13T20:17:33.490Z,169.66
2023-05-13T20:20:42.193Z,153.60
2023-05-13T20:23:48.902Z,159.52
2023-05-13T20:26:54.860Z,155.71
2023-05-13T20:30:02.455Z,150.42
2023-05-13T20:33:08.605Z,159.59
2023-05-13T20:36:18.163Z,151.04
2023-05-13T20:39:24.303Z,148.42
2023-05-13T20:42:31.041Z,158.02
2023-05-13T20:45:39.976Z,146.18
2023-05-13T20:48:47.782Z,149.76
2023-05-13T20:51:56.597Z,149.05
2023-05-13T20:55:03.661Z,155.80
2023-05-13T20:58:12.404Z,154.32
2023-05-13T21:01:19.315Z,157.90
2023-05-13T21:04:26.470Z,158.05
2023-05-13T21:07:37.948Z,147.93
2023-05-13T21:10:44.164Z,145.62
2023-05-13T21:13:51.337Z,146.20
2023-05-13T21:16:57.408Z,134.91
2023-05-13T21:20:04.697Z,153.84
2023-05-13T21:23:16.003Z,135.57
2023-05-13T21:26:23.432Z,136.39
2023-05-13T21:29:34.534Z,131.00
2023-05-13T21:32:41.410Z,136.75
2023-05-13T21:35:47.396Z,140.08
2023-05-13T21:38:56.950Z,150.99
2023-05-13T21:42:03.698Z,140.97
2023-05-13T21:45:12.272Z,152.32
2023-05-13T21:48:18.473Z,148.39
2023-05-13T21:51:26.080Z,157.04
2023-05-13T21:54:34.678Z,148.62
2023-05-13T21:57:41.553Z,150.27
2023-05-13T22:00:47.559Z,147.75
2023-05-13T22:03:54.311Z,156.15
2023-05-13T22:07:00.356Z,157.18
2023-05-13T22:10:11.725Z,158.45
2023-05-13T22:13:17.728Z,143.83
2023-05-13T22:16:24.819Z,157.59
2023-05-13T22:19:31.069Z,152.58
2023-05-13T22:22:37.899Z,148.18
2023-05-13T22:25:46.534Z,154.18
2023-05-13T22:29:47.760Z,154.54
2023-05-13T22:32:56.164Z,182.04
2023-05-13T22:36:02.122Z,173.20
2023-05-13T22:39:09.007Z,174.50
2023-05-13T22:42:15.082Z,240.46
2023-05-13T22:45:28.780Z,159.44
2023-05-13T22:48:34.920Z,163.37
2023-05-13T22:51:41.733Z,165.20
2023-05-13T22:54:47.861Z,159.62
2023-05-13T22:57:57.258Z,161.16
2023-05-13T23:01:05.792Z,168.57
2023-05-13T23:04:12.568Z,163.78
2023-05-13T23:07:18.441Z,158.67
2023-05-13T23:10:25.484Z,155.29
2023-05-13T23:13:31.861Z,159.03
2023-05-13T23:16:41.584Z,160.23
2023-05-13T23:19:47.696Z,162.53
2023-05-13T23:22:57.592Z,159.33
2023-05-13T23:26:04.590Z,151.86
2023-05-13T23:29:11.583Z,161.27
2023-05-13T23:32:20.272Z,152.33
2023-05-13T23:35:26.969Z,163.64
2023-05-13T23:38:32.901Z,167.87
2023-05-13T23:41:39.589Z,168.60
2023-05-13T23:44:46.464Z,149.53
2023-05-13T23:47:56.511Z,164.27
2023-05-13T23:51:02.380Z,160.12
2023-05-13T23:54:09.255Z,154.12
2023-05-13T23:57:15.923Z,152.19
